Archival Weather

Joint Base Andrews

Camp Springs, Maryland (KADW)

Report from: Tuesday, February 27, 2024 12:55 AM EST
Current time: Wednesday, May 29, 2024 8:29 PM EDT

Current weather – Weather history – Daily summaries
Weather forecast

Temperature8.4°C (47.1°F)
Wind chill6.9°C (44.4°F)
Dew point3.8°C (38.8°F)
Winds 5 kts (2.6 m/s, 5.8 mph) South (190°)
Visibility10 mi. (16.1 km)
Clouds Sky clear
Altimeter29.95 in.Hg (1014 mB)
Relative humidity73 %
Density altitude-730 ft. (-222 m)
Sea-level pressure101.5 kPa (1015 mB, 29.97 in.Hg)
Max temp last 6 hours11.3°C (52.3°F)
Min temp last 6 hours7.3°C (45.1°F)
Remarks Fully automated report
System requires maintenance
Automated weather observing station with precipitation discriminator
Pressure falling more quickly
Flight conditions Visual Meteorological Conditions
Raw dataKADW 270555Z AUTO 19005KT 10SM CLR 08/04 A2995 RMK AO2 SLP149 T00840038 10113 20073 58008 $
An error has occurred. This application may no longer respond until reloaded. Reload 🗙